Current Weather

West Bend Muni

West Bend, Wisconsin (KETB)

Report from: Wednesday, April 24, 2024 11:35 PM CDT
Current time: Wednesday, April 24, 2024 11:50 PM CDT

Nearby weather – Weather history – Daily summaries
Weather forecast

Temperature0.0°C (32.0°F)
Dew point-2.0°C (28.4°F)
Winds Calm
Visibility10 mi. (16.1 km)
Clouds Sky clear
Altimeter30.31 in.Hg (1026 mB)
Relative humidity86 %
Density altitude-2,200 ft. (-671 m)
Remarks Fully automated report
Automated weather observing station with precipitation discriminator
Flight conditions Visual Meteorological Conditions
Raw dataKETB 250435Z AUTO 00000KT 10SM CLR 00/M02 A3031 RMK AO2
An error has occurred. This application may no longer respond until reloaded. Reload 🗙